sensor_id;sensor_type;location;lat;lon;timestamp;P1;durP1;ratioP1;P2;durP2;ratioP2
13704;SDS011;6924;52.122;9.952;2022-11-20T00:01:05;9.93;;;7.43;;
13704;SDS011;6924;52.122;9.952;2022-11-20T00:03:32;9.90;;;7.13;;
13704;SDS011;6924;52.122;9.952;2022-11-20T00:05:59;9.07;;;8.17;;
13704;SDS011;6924;52.122;9.952;2022-11-20T00:08:27;8.73;;;7.70;;
13704;SDS011;6924;52.122;9.952;2022-11-20T00:10:54;8.90;;;7.87;;
13704;SDS011;6924;52.122;9.952;2022-11-20T00:13:20;9.47;;;7.57;;
13704;SDS011;6924;52.122;9.952;2022-11-20T00:15:47;9.77;;;7.83;;
13704;SDS011;6924;52.122;9.952;2022-11-20T00:18:13;8.67;;;7.63;;
13704;SDS011;6924;52.122;9.952;2022-11-20T00:20:40;9.40;;;7.40;;
13704;SDS011;6924;52.122;9.952;2022-11-20T00:23:06;8.40;;;7.27;;
13704;SDS011;6924;52.122;9.952;2022-11-20T00:25:34;8.73;;;7.83;;
13704;SDS011;6924;52.122;9.952;2022-11-20T00:28:01;9.87;;;7.70;;
13704;SDS011;6924;52.122;9.952;2022-11-20T00:30:27;8.77;;;6.97;;
13704;SDS011;6924;52.122;9.952;2022-11-20T00:32:55;8.87;;;7.93;;
13704;SDS011;6924;52.122;9.952;2022-11-20T00:35:22;9.90;;;6.93;;
13704;SDS011;6924;52.122;9.952;2022-11-20T00:37:49;9.47;;;8.07;;
13704;SDS011;6924;52.122;9.952;2022-11-20T00:40:15;8.60;;;7.70;;
13704;SDS011;6924;52.122;9.952;2022-11-20T00:42:43;9.83;;;7.40;;
13704;SDS011;6924;52.122;9.952;2022-11-20T00:45:10;9.77;;;7.40;;
13704;SDS011;6924;52.122;9.952;2022-11-20T00:47:36;10.87;;;7.17;;
13704;SDS011;6924;52.122;9.952;2022-11-20T00:50:03;9.40;;;6.80;;
13704;SDS011;6924;52.122;9.952;2022-11-20T00:52:30;15.43;;;8.80;;
13704;SDS011;6924;52.122;9.952;2022-11-20T00:54:57;9.33;;;7.47;;
13704;SDS011;6924;52.122;9.952;2022-11-20T00:57:23;7.23;;;6.37;;
13704;SDS011;6924;52.122;9.952;2022-11-20T00:59:51;8.57;;;6.80;;
13704;SDS011;6924;52.122;9.952;2022-11-20T01:02:18;7.77;;;6.97;;
13704;SDS011;6924;52.122;9.952;2022-11-20T01:04:44;8.43;;;6.60;;
13704;SDS011;6924;52.122;9.952;2022-11-20T01:07:11;6.57;;;5.87;;
13704;SDS011;6924;52.122;9.952;2022-11-20T01:09:37;9.07;;;6.57;;
13704;SDS011;6924;52.122;9.952;2022-11-20T01:12:04;8.53;;;6.33;;
13704;SDS011;6924;52.122;9.952;2022-11-20T01:14:31;8.07;;;6.27;;
13704;SDS011;6924;52.122;9.952;2022-11-20T01:16:59;7.30;;;5.73;;
13704;SDS011;6924;52.122;9.952;2022-11-20T01:19:25;7.37;;;6.67;;
13704;SDS011;6924;52.122;9.952;2022-11-20T01:21:52;6.67;;;5.97;;
13704;SDS011;6924;52.122;9.952;2022-11-20T01:24:20;9.27;;;6.80;;
13704;SDS011;6924;52.122;9.952;2022-11-20T01:26:48;7.93;;;7.13;;
13704;SDS011;6924;52.122;9.952;2022-11-20T01:29:16;8.97;;;6.80;;
13704;SDS011;6924;52.122;9.952;2022-11-20T01:31:44;7.50;;;5.83;;
13704;SDS011;6924;52.122;9.952;2022-11-20T01:34:13;7.33;;;6.50;;
13704;SDS011;6924;52.122;9.952;2022-11-20T01:36:41;7.20;;;5.83;;
13704;SDS011;6924;52.122;9.952;2022-11-20T01:39:10;8.70;;;7.80;;
13704;SDS011;6924;52.122;9.952;2022-11-20T01:41:39;11.70;;;6.47;;
13704;SDS011;6924;52.122;9.952;2022-11-20T01:47:12;9.43;;;6.83;;
13704;SDS011;6924;52.122;9.952;2022-11-20T01:49:44;8.03;;;6.57;;
13704;SDS011;6924;52.122;9.952;2022-11-20T01:52:15;6.20;;;5.60;;
13704;SDS011;6924;52.122;9.952;2022-11-20T01:54:44;8.30;;;6.50;;
13704;SDS011;6924;52.122;9.952;2022-11-20T01:57:16;8.03;;;6.37;;
13704;SDS011;6924;52.122;9.952;2022-11-20T01:59:44;9.73;;;6.90;;
13704;SDS011;6924;52.122;9.952;2022-11-20T02:02:17;7.80;;;5.87;;
13704;SDS011;6924;52.122;9.952;2022-11-20T02:04:45;8.30;;;7.30;;
13704;SDS011;6924;52.122;9.952;2022-11-20T02:07:13;7.03;;;5.93;;
13704;SDS011;6924;52.122;9.952;2022-11-20T02:09:40;8.90;;;6.77;;
13704;SDS011;6924;52.122;9.952;2022-11-20T02:12:06;6.27;;;5.60;;
13704;SDS011;6924;52.122;9.952;2022-11-20T02:14:53;7.90;;;6.27;;
13704;SDS011;6924;52.122;9.952;2022-11-20T02:17:19;8.03;;;5.87;;
13704;SDS011;6924;52.122;9.952;2022-11-20T02:19:47;8.17;;;6.70;;
13704;SDS011;6924;52.122;9.952;2022-11-20T02:22:14;8.43;;;6.47;;
13704;SDS011;6924;52.122;9.952;2022-11-20T02:24:47;6.47;;;5.53;;
13704;SDS011;6924;52.122;9.952;2022-11-20T02:27:15;7.63;;;6.27;;
13704;SDS011;6924;52.122;9.952;2022-11-20T02:29:44;6.50;;;5.80;;
13704;SDS011;6924;52.122;9.952;2022-11-20T02:32:17;8.47;;;6.60;;
13704;SDS011;6924;52.122;9.952;2022-11-20T02:34:45;8.27;;;6.50;;
13704;SDS011;6924;52.122;9.952;2022-11-20T02:37:11;7.83;;;6.10;;
13704;SDS011;6924;52.122;9.952;2022-11-20T02:39:38;7.20;;;6.37;;
13704;SDS011;6924;52.122;9.952;2022-11-20T02:42:07;7.70;;;6.03;;
13704;SDS011;6924;52.122;9.952;2022-11-20T02:44:34;8.10;;;6.57;;
13704;SDS011;6924;52.122;9.952;2022-11-20T02:47:00;9.23;;;6.37;;
13704;SDS011;6924;52.122;9.952;2022-11-20T02:49:27;8.53;;;6.07;;
13704;SDS011;6924;52.122;9.952;2022-11-20T02:51:53;6.47;;;5.43;;
13704;SDS011;6924;52.122;9.952;2022-11-20T02:54:20;9.67;;;6.40;;
13704;SDS011;6924;52.122;9.952;2022-11-20T02:56:46;6.10;;;5.50;;
13704;SDS011;6924;52.122;9.952;2022-11-20T02:59:14;9.03;;;5.57;;
13704;SDS011;6924;52.122;9.952;2022-11-20T03:01:41;8.20;;;5.40;;
13704;SDS011;6924;52.122;9.952;2022-11-20T03:04:07;6.90;;;5.53;;
13704;SDS011;6924;52.122;9.952;2022-11-20T03:06:34;7.30;;;5.93;;
13704;SDS011;6924;52.122;9.952;2022-11-20T03:09:01;9.17;;;5.30;;
13704;SDS011;6924;52.122;9.952;2022-11-20T03:11:28;6.50;;;5.43;;
13704;SDS011;6924;52.122;9.952;2022-11-20T03:13:54;6.50;;;5.77;;
13704;SDS011;6924;52.122;9.952;2022-11-20T03:16:23;8.20;;;6.03;;
13704;SDS011;6924;52.122;9.952;2022-11-20T03:18:51;6.97;;;5.47;;
13704;SDS011;6924;52.122;9.952;2022-11-20T03:21:18;6.37;;;5.63;;
13704;SDS011;6924;52.122;9.952;2022-11-20T03:23:44;6.20;;;4.93;;
13704;SDS011;6924;52.122;9.952;2022-11-20T03:26:12;6.97;;;5.50;;
13704;SDS011;6924;52.122;9.952;2022-11-20T03:28:40;8.30;;;5.67;;
13704;SDS011;6924;52.122;9.952;2022-11-20T03:31:08;7.93;;;6.67;;
13704;SDS011;6924;52.122;9.952;2022-11-20T03:33:37;9.57;;;5.57;;
13704;SDS011;6924;52.122;9.952;2022-11-20T03:36:05;7.80;;;5.80;;
13704;SDS011;6924;52.122;9.952;2022-11-20T03:38:33;11.23;;;6.13;;
13704;SDS011;6924;52.122;9.952;2022-11-20T03:41:00;9.67;;;6.70;;
13704;SDS011;6924;52.122;9.952;2022-11-20T03:43:27;7.10;;;6.07;;
13704;SDS011;6924;52.122;9.952;2022-11-20T03:45:54;8.00;;;5.83;;
13704;SDS011;6924;52.122;9.952;2022-11-20T03:48:20;8.80;;;6.67;;
13704;SDS011;6924;52.122;9.952;2022-11-20T03:50:48;7.03;;;5.27;;
13704;SDS011;6924;52.122;9.952;2022-11-20T03:53:15;6.90;;;6.07;;
13704;SDS011;6924;52.122;9.952;2022-11-20T03:55:42;6.87;;;5.63;;
13704;SDS011;6924;52.122;9.952;2022-11-20T03:58:08;6.50;;;5.87;;
13704;SDS011;6924;52.122;9.952;2022-11-20T04:00:36;6.47;;;5.77;;
13704;SDS011;6924;52.122;9.952;2022-11-20T04:03:02;8.53;;;6.07;;
13704;SDS011;6924;52.122;9.952;2022-11-20T04:05:29;5.97;;;5.27;;
13704;SDS011;6924;52.122;9.952;2022-11-20T04:07:57;6.73;;;5.77;;
13704;SDS011;6924;52.122;9.952;2022-11-20T04:10:23;7.17;;;6.47;;
13704;SDS011;6924;52.122;9.952;2022-11-20T04:12:50;8.17;;;6.00;;
13704;SDS011;6924;52.122;9.952;2022-11-20T04:15:16;6.83;;;5.60;;
13704;SDS011;6924;52.122;9.952;2022-11-20T04:17:43;9.80;;;8.27;;
13704;SDS011;6924;52.122;9.952;2022-11-20T04:20:09;8.33;;;7.33;;
13704;SDS011;6924;52.122;9.952;2022-11-20T04:22:36;6.50;;;5.87;;
13704;SDS011;6924;52.122;9.952;2022-11-20T04:25:04;7.67;;;5.77;;
13704;SDS011;6924;52.122;9.952;2022-11-20T04:27:31;7.67;;;5.00;;
13704;SDS011;6924;52.122;9.952;2022-11-20T04:29:58;9.83;;;5.63;;
13704;SDS011;6924;52.122;9.952;2022-11-20T04:32:24;8.37;;;5.87;;
13704;SDS011;6924;52.122;9.952;2022-11-20T04:34:51;6.60;;;5.60;;
13704;SDS011;6924;52.122;9.952;2022-11-20T04:37:17;5.93;;;5.33;;
13704;SDS011;6924;52.122;9.952;2022-11-20T04:39:44;8.43;;;6.13;;
13704;SDS011;6924;52.122;9.952;2022-11-20T04:42:11;6.03;;;4.77;;
13704;SDS011;6924;52.122;9.952;2022-11-20T04:44:56;6.37;;;4.97;;
13704;SDS011;6924;52.122;9.952;2022-11-20T04:47:23;7.00;;;5.50;;
13704;SDS011;6924;52.122;9.952;2022-11-20T04:49:50;6.20;;;5.60;;
13704;SDS011;6924;52.122;9.952;2022-11-20T04:52:16;6.93;;;5.40;;
13704;SDS011;6924;52.122;9.952;2022-11-20T04:54:43;6.20;;;4.83;;
13704;SDS011;6924;52.122;9.952;2022-11-20T04:57:09;6.33;;;5.00;;
13704;SDS011;6924;52.122;9.952;2022-11-20T04:59:37;7.50;;;6.38;;
13704;SDS011;6924;52.122;9.952;2022-11-20T05:02:03;7.37;;;5.60;;
13704;SDS011;6924;52.122;9.952;2022-11-20T05:04:30;6.33;;;5.60;;
13704;SDS011;6924;52.122;9.952;2022-11-20T05:06:56;7.73;;;5.40;;
13704;SDS011;6924;52.122;9.952;2022-11-20T05:09:23;6.77;;;5.70;;
13704;SDS011;6924;52.122;9.952;2022-11-20T05:11:49;7.93;;;5.60;;
13704;SDS011;6924;52.122;9.952;2022-11-20T05:14:16;6.20;;;5.47;;
13704;SDS011;6924;52.122;9.952;2022-11-20T05:16:44;6.00;;;5.40;;
13704;SDS011;6924;52.122;9.952;2022-11-20T05:19:10;6.70;;;6.00;;
13704;SDS011;6924;52.122;9.952;2022-11-20T05:21:37;8.37;;;6.73;;
13704;SDS011;6924;52.122;9.952;2022-11-20T05:24:04;7.90;;;6.23;;
13704;SDS011;6924;52.122;9.952;2022-11-20T05:26:31;6.33;;;5.73;;
13704;SDS011;6924;52.122;9.952;2022-11-20T05:28:58;5.70;;;5.13;;
13704;SDS011;6924;52.122;9.952;2022-11-20T05:31:25;8.57;;;6.83;;
13704;SDS011;6924;52.122;9.952;2022-11-20T05:33:54;12.10;;;7.10;;
13704;SDS011;6924;52.122;9.952;2022-11-20T05:36:22;20.07;;;11.57;;
13704;SDS011;6924;52.122;9.952;2022-11-20T05:38:49;16.33;;;11.70;;
13704;SDS011;6924;52.122;9.952;2022-11-20T05:41:16;11.03;;;8.43;;
13704;SDS011;6924;52.122;9.952;2022-11-20T05:43:47;7.73;;;6.80;;
13704;SDS011;6924;52.122;9.952;2022-11-20T05:46:16;8.07;;;7.27;;
13704;SDS011;6924;52.122;9.952;2022-11-20T05:48:45;8.87;;;6.50;;
13704;SDS011;6924;52.122;9.952;2022-11-20T05:51:15;6.17;;;5.53;;
13704;SDS011;6924;52.122;9.952;2022-11-20T05:53:43;5.97;;;5.37;;
13704;SDS011;6924;52.122;9.952;2022-11-20T05:56:11;7.93;;;5.50;;
13704;SDS011;6924;52.122;9.952;2022-11-20T05:58:39;7.07;;;5.30;;
13704;SDS011;6924;52.122;9.952;2022-11-20T06:01:06;8.37;;;7.00;;
13704;SDS011;6924;52.122;9.952;2022-11-20T06:03:34;8.40;;;6.13;;
13704;SDS011;6924;52.122;9.952;2022-11-20T06:06:01;7.00;;;5.80;;
13704;SDS011;6924;52.122;9.952;2022-11-20T06:08:29;6.40;;;5.77;;
13704;SDS011;6924;52.122;9.952;2022-11-20T06:10:57;8.03;;;6.10;;
13704;SDS011;6924;52.122;9.952;2022-11-20T06:13:23;8.53;;;6.93;;
13704;SDS011;6924;52.122;9.952;2022-11-20T06:15:51;7.30;;;6.60;;
13704;SDS011;6924;52.122;9.952;2022-11-20T06:18:18;7.93;;;6.63;;
13704;SDS011;6924;52.122;9.952;2022-11-20T06:20:45;8.07;;;6.70;;
13704;SDS011;6924;52.122;9.952;2022-11-20T06:23:12;8.83;;;6.40;;
13704;SDS011;6924;52.122;9.952;2022-11-20T06:25:40;8.03;;;6.20;;
13704;SDS011;6924;52.122;9.952;2022-11-20T06:28:08;7.50;;;6.30;;
13704;SDS011;6924;52.122;9.952;2022-11-20T06:30:35;6.70;;;5.80;;
13704;SDS011;6924;52.122;9.952;2022-11-20T06:33:02;8.97;;;6.70;;
13704;SDS011;6924;52.122;9.952;2022-11-20T06:35:28;8.77;;;6.63;;
13704;SDS011;6924;52.122;9.952;2022-11-20T06:37:55;7.53;;;6.30;;
13704;SDS011;6924;52.122;9.952;2022-11-20T06:40:22;8.53;;;7.03;;
13704;SDS011;6924;52.122;9.952;2022-11-20T06:42:50;7.73;;;6.93;;
13704;SDS011;6924;52.122;9.952;2022-11-20T06:45:16;7.80;;;7.10;;
13704;SDS011;6924;52.122;9.952;2022-11-20T06:47:43;7.37;;;6.03;;
13704;SDS011;6924;52.122;9.952;2022-11-20T06:50:09;9.40;;;6.83;;
13704;SDS011;6924;52.122;9.952;2022-11-20T06:52:35;9.73;;;6.83;;
13704;SDS011;6924;52.122;9.952;2022-11-20T06:55:02;7.33;;;6.33;;
13704;SDS011;6924;52.122;9.952;2022-11-20T06:57:29;8.10;;;7.30;;
13704;SDS011;6924;52.122;9.952;2022-11-20T06:59:57;7.13;;;6.10;;
13704;SDS011;6924;52.122;9.952;2022-11-20T07:02:23;7.30;;;6.20;;
13704;SDS011;6924;52.122;9.952;2022-11-20T07:04:50;7.90;;;6.90;;
13704;SDS011;6924;52.122;9.952;2022-11-20T07:07:16;10.83;;;7.60;;
13704;SDS011;6924;52.122;9.952;2022-11-20T07:09:43;8.50;;;6.50;;
13704;SDS011;6924;52.122;9.952;2022-11-20T07:12:09;7.93;;;6.87;;
13704;SDS011;6924;52.122;9.952;2022-11-20T07:14:36;8.17;;;7.27;;
13704;SDS011;6924;52.122;9.952;2022-11-20T07:17:03;8.37;;;7.33;;
13704;SDS011;6924;52.122;9.952;2022-11-20T07:19:30;8.10;;;6.67;;
13704;SDS011;6924;52.122;9.952;2022-11-20T07:21:56;11.67;;;6.47;;
13704;SDS011;6924;52.122;9.952;2022-11-20T07:24:23;8.67;;;7.27;;
13704;SDS011;6924;52.122;9.952;2022-11-20T07:26:50;7.30;;;6.60;;
13704;SDS011;6924;52.122;9.952;2022-11-20T07:29:16;8.47;;;6.77;;
13704;SDS011;6924;52.122;9.952;2022-11-20T07:31:43;8.00;;;6.50;;
13704;SDS011;6924;52.122;9.952;2022-11-20T07:34:11;11.23;;;8.00;;
13704;SDS011;6924;52.122;9.952;2022-11-20T07:36:37;8.87;;;7.97;;
13704;SDS011;6924;52.122;9.952;2022-11-20T07:39:04;8.77;;;6.67;;
13704;SDS011;6924;52.122;9.952;2022-11-20T07:41:30;9.60;;;7.77;;
13704;SDS011;6924;52.122;9.952;2022-11-20T07:43:57;8.87;;;6.67;;
13704;SDS011;6924;52.122;9.952;2022-11-20T07:46:23;10.03;;;8.67;;
13704;SDS011;6924;52.122;9.952;2022-11-20T07:48:50;9.27;;;7.10;;
13704;SDS011;6924;52.122;9.952;2022-11-20T07:51:18;8.40;;;7.50;;
13704;SDS011;6924;52.122;9.952;2022-11-20T07:53:44;8.60;;;6.97;;
13704;SDS011;6924;52.122;9.952;2022-11-20T07:56:11;8.27;;;6.43;;
13704;SDS011;6924;52.122;9.952;2022-11-20T07:58:39;8.67;;;7.47;;
13704;SDS011;6924;52.122;9.952;2022-11-20T08:01:06;9.53;;;7.83;;
13704;SDS011;6924;52.122;9.952;2022-11-20T08:03:33;8.27;;;7.27;;
13704;SDS011;6924;52.122;9.952;2022-11-20T08:06:02;7.83;;;6.93;;
13704;SDS011;6924;52.122;9.952;2022-11-20T08:08:31;8.07;;;7.27;;
13704;SDS011;6924;52.122;9.952;2022-11-20T08:10:57;8.70;;;7.53;;
13704;SDS011;6924;52.122;9.952;2022-11-20T08:13:45;9.50;;;7.50;;
13704;SDS011;6924;52.122;9.952;2022-11-20T08:16:29;7.70;;;6.47;;
13704;SDS011;6924;52.122;9.952;2022-11-20T08:18:55;10.03;;;7.37;;
13704;SDS011;6924;52.122;9.952;2022-11-20T08:21:22;11.83;;;8.90;;
13704;SDS011;6924;52.122;9.952;2022-11-20T08:23:50;8.47;;;7.57;;
13704;SDS011;6924;52.122;9.952;2022-11-20T08:26:16;9.67;;;7.37;;
13704;SDS011;6924;52.122;9.952;2022-11-20T08:28:43;9.07;;;8.00;;
13704;SDS011;6924;52.122;9.952;2022-11-20T08:31:10;9.53;;;7.97;;
13704;SDS011;6924;52.122;9.952;2022-11-20T08:33:36;9.47;;;8.47;;
13704;SDS011;6924;52.122;9.952;2022-11-20T08:36:03;10.87;;;7.13;;
13704;SDS011;6924;52.122;9.952;2022-11-20T08:38:31;12.97;;;8.57;;
13704;SDS011;6924;52.122;9.952;2022-11-20T08:40:59;8.27;;;7.47;;
13704;SDS011;6924;52.122;9.952;2022-11-20T08:43:44;9.40;;;7.30;;
13704;SDS011;6924;52.122;9.952;2022-11-20T08:46:11;11.27;;;8.17;;
13704;SDS011;6924;52.122;9.952;2022-11-20T08:48:38;10.00;;;8.37;;
13704;SDS011;6924;52.122;9.952;2022-11-20T08:51:04;22.63;;;17.57;;
13704;SDS011;6924;52.122;9.952;2022-11-20T08:53:31;11.47;;;9.70;;
13704;SDS011;6924;52.122;9.952;2022-11-20T08:55:59;12.07;;;10.73;;
13704;SDS011;6924;52.122;9.952;2022-11-20T08:58:26;9.77;;;8.87;;
13704;SDS011;6924;52.122;9.952;2022-11-20T09:00:52;12.33;;;8.53;;
13704;SDS011;6924;52.122;9.952;2022-11-20T09:03:19;9.80;;;7.80;;
13704;SDS011;6924;52.122;9.952;2022-11-20T09:05:46;8.10;;;7.30;;
13704;SDS011;6924;52.122;9.952;2022-11-20T09:08:12;10.97;;;9.80;;
13704;SDS011;6924;52.122;9.952;2022-11-20T09:10:39;12.77;;;9.93;;
13704;SDS011;6924;52.122;9.952;2022-11-20T09:13:07;10.50;;;9.47;;
13704;SDS011;6924;52.122;9.952;2022-11-20T09:15:33;12.20;;;8.87;;
13704;SDS011;6924;52.122;9.952;2022-11-20T09:18:00;10.33;;;9.20;;
13704;SDS011;6924;52.122;9.952;2022-11-20T09:20:29;10.37;;;8.50;;
13704;SDS011;6924;52.122;9.952;2022-11-20T09:22:56;9.80;;;7.97;;
13704;SDS011;6924;52.122;9.952;2022-11-20T09:25:23;8.83;;;7.30;;
13704;SDS011;6924;52.122;9.952;2022-11-20T09:27:54;7.10;;;6.30;;
13704;SDS011;6924;52.122;9.952;2022-11-20T09:30:22;10.90;;;9.37;;
13704;SDS011;6924;52.122;9.952;2022-11-20T09:32:49;9.33;;;8.43;;
13704;SDS011;6924;52.122;9.952;2022-11-20T09:35:15;9.63;;;7.80;;
13704;SDS011;6924;52.122;9.952;2022-11-20T09:37:42;9.20;;;8.30;;
13704;SDS011;6924;52.122;9.952;2022-11-20T09:40:09;8.07;;;7.20;;
13704;SDS011;6924;52.122;9.952;2022-11-20T09:42:46;9.23;;;8.03;;
13704;SDS011;6924;52.122;9.952;2022-11-20T09:45:24;8.03;;;7.30;;
13704;SDS011;6924;52.122;9.952;2022-11-20T09:48:16;9.60;;;7.87;;
13704;SDS011;6924;52.122;9.952;2022-11-20T09:51:02;8.70;;;7.23;;
13704;SDS011;6924;52.122;9.952;2022-11-20T09:53:41;9.20;;;8.20;;
13704;SDS011;6924;52.122;9.952;2022-11-20T09:56:17;8.53;;;7.03;;
13704;SDS011;6924;52.122;9.952;2022-11-20T09:58:47;10.33;;;7.13;;
13704;SDS011;6924;52.122;9.952;2022-11-20T10:01:18;7.97;;;6.97;;
13704;SDS011;6924;52.122;9.952;2022-11-20T10:03:50;9.77;;;8.03;;
13704;SDS011;6924;52.122;9.952;2022-11-20T10:06:22;9.57;;;7.73;;
13704;SDS011;6924;52.122;9.952;2022-11-20T10:08:55;9.80;;;7.53;;
13704;SDS011;6924;52.122;9.952;2022-11-20T10:11:32;9.63;;;8.27;;
13704;SDS011;6924;52.122;9.952;2022-11-20T10:14:16;16.03;;;9.97;;
13704;SDS011;6924;52.122;9.952;2022-11-20T10:16:53;10.17;;;8.83;;
13704;SDS011;6924;52.122;9.952;2022-11-20T10:19:38;9.40;;;8.37;;
13704;SDS011;6924;52.122;9.952;2022-11-20T10:22:16;8.20;;;7.33;;
13704;SDS011;6924;52.122;9.952;2022-11-20T10:24:56;9.50;;;7.07;;
13704;SDS011;6924;52.122;9.952;2022-11-20T10:27:28;9.67;;;8.77;;
13704;SDS011;6924;52.122;9.952;2022-11-20T10:30:08;9.63;;;6.90;;
13704;SDS011;6924;52.122;9.952;2022-11-20T10:32:38;8.83;;;7.17;;
13704;SDS011;6924;52.122;9.952;2022-11-20T10:35:07;7.10;;;5.87;;
13704;SDS011;6924;52.122;9.952;2022-11-20T10:37:44;6.27;;;5.67;;
13704;SDS011;6924;52.122;9.952;2022-11-20T10:40:19;9.23;;;7.37;;
13704;SDS011;6924;52.122;9.952;2022-11-20T10:42:50;6.60;;;5.43;;
13704;SDS011;6924;52.122;9.952;2022-11-20T10:45:22;6.20;;;5.57;;
13704;SDS011;6924;52.122;9.952;2022-11-20T10:48:04;8.20;;;6.80;;
13704;SDS011;6924;52.122;9.952;2022-11-20T10:50:39;6.97;;;6.27;;
13704;SDS011;6924;52.122;9.952;2022-11-20T10:53:14;8.03;;;6.87;;
13704;SDS011;6924;52.122;9.952;2022-11-20T10:55:53;7.87;;;6.20;;
13704;SDS011;6924;52.122;9.952;2022-11-20T10:58:25;7.47;;;6.67;;
13704;SDS011;6924;52.122;9.952;2022-11-20T11:01:05;7.60;;;6.77;;
13704;SDS011;6924;52.122;9.952;2022-11-20T11:03:33;7.37;;;6.43;;
13704;SDS011;6924;52.122;9.952;2022-11-20T11:06:02;8.13;;;5.73;;
13704;SDS011;6924;52.122;9.952;2022-11-20T11:08:35;7.53;;;6.57;;
13704;SDS011;6924;52.122;9.952;2022-11-20T11:11:07;7.17;;;6.47;;
13704;SDS011;6924;52.122;9.952;2022-11-20T11:13:46;7.60;;;5.60;;
13704;SDS011;6924;52.122;9.952;2022-11-20T11:16:17;8.00;;;6.53;;
13704;SDS011;6924;52.122;9.952;2022-11-20T11:18:49;7.17;;;6.10;;
13704;SDS011;6924;52.122;9.952;2022-11-20T11:21:20;8.63;;;6.43;;
13704;SDS011;6924;52.122;9.952;2022-11-20T11:23:56;6.70;;;5.83;;
13704;SDS011;6924;52.122;9.952;2022-11-20T11:26:24;6.13;;;5.53;;
13704;SDS011;6924;52.122;9.952;2022-11-20T11:28:55;8.07;;;6.17;;
13704;SDS011;6924;52.122;9.952;2022-11-20T11:31:23;10.03;;;5.77;;
13704;SDS011;6924;52.122;9.952;2022-11-20T11:34:02;7.00;;;5.80;;
13704;SDS011;6924;52.122;9.952;2022-11-20T11:36:30;7.70;;;6.37;;
13704;SDS011;6924;52.122;9.952;2022-11-20T11:38:58;6.77;;;5.70;;
13704;SDS011;6924;52.122;9.952;2022-11-20T11:41:25;7.03;;;6.00;;
13704;SDS011;6924;52.122;9.952;2022-11-20T11:43:57;7.13;;;5.70;;
13704;SDS011;6924;52.122;9.952;2022-11-20T11:46:49;7.00;;;5.93;;
13704;SDS011;6924;52.122;9.952;2022-11-20T11:49:20;5.80;;;5.30;;
13704;SDS011;6924;52.122;9.952;2022-11-20T11:51:52;6.13;;;4.90;;
13704;SDS011;6924;52.122;9.952;2022-11-20T11:54:28;5.70;;;5.10;;
13704;SDS011;6924;52.122;9.952;2022-11-20T11:57:00;4.23;;;3.83;;
13704;SDS011;6924;52.122;9.952;2022-11-20T11:59:33;6.10;;;5.13;;
13704;SDS011;6924;52.122;9.952;2022-11-20T12:02:14;4.93;;;4.20;;
13704;SDS011;6924;52.122;9.952;2022-11-20T12:04:53;5.10;;;4.60;;
13704;SDS011;6924;52.122;9.952;2022-11-20T12:07:25;4.70;;;3.97;;
13704;SDS011;6924;52.122;9.952;2022-11-20T12:10:01;4.83;;;4.03;;
13704;SDS011;6924;52.122;9.952;2022-11-20T12:12:29;4.10;;;3.63;;
13704;SDS011;6924;52.122;9.952;2022-11-20T12:15:02;4.23;;;3.77;;
13704;SDS011;6924;52.122;9.952;2022-11-20T12:17:30;4.43;;;3.53;;
13704;SDS011;6924;52.122;9.952;2022-11-20T12:19:58;4.17;;;3.77;;
13704;SDS011;6924;52.122;9.952;2022-11-20T12:22:27;5.83;;;5.33;;
13704;SDS011;6924;52.122;9.952;2022-11-20T12:25:02;4.73;;;4.33;;
13704;SDS011;6924;52.122;9.952;2022-11-20T12:30:32;6.60;;;5.17;;
13704;SDS011;6924;52.122;9.952;2022-11-20T12:36:11;5.30;;;4.50;;
13704;SDS011;6924;52.122;9.952;2022-11-20T12:38:51;6.17;;;4.73;;
13704;SDS011;6924;52.122;9.952;2022-11-20T12:41:44;5.57;;;5.00;;
13704;SDS011;6924;52.122;9.952;2022-11-20T12:47:46;6.97;;;4.37;;
13704;SDS011;6924;52.122;9.952;2022-11-20T12:50:28;6.60;;;4.63;;
13704;SDS011;6924;52.122;9.952;2022-11-20T12:53:04;4.97;;;4.40;;
13704;SDS011;6924;52.122;9.952;2022-11-20T12:55:40;6.33;;;4.33;;
13704;SDS011;6924;52.122;9.952;2022-11-20T12:58:15;6.43;;;5.33;;
13704;SDS011;6924;52.122;9.952;2022-11-20T13:00:54;5.03;;;4.57;;
13704;SDS011;6924;52.122;9.952;2022-11-20T13:03:37;5.93;;;5.07;;
13704;SDS011;6924;52.122;9.952;2022-11-20T13:06:10;5.80;;;4.63;;
13704;SDS011;6924;52.122;9.952;2022-11-20T13:08:41;4.93;;;4.43;;
13704;SDS011;6924;52.122;9.952;2022-11-20T13:11:14;6.23;;;4.57;;
13704;SDS011;6924;52.122;9.952;2022-11-20T13:13:56;5.27;;;4.20;;
13704;SDS011;6924;52.122;9.952;2022-11-20T13:16:36;4.57;;;3.97;;
13704;SDS011;6924;52.122;9.952;2022-11-20T13:19:05;4.73;;;4.23;;
13704;SDS011;6924;52.122;9.952;2022-11-20T13:21:38;6.03;;;4.80;;
13704;SDS011;6924;52.122;9.952;2022-11-20T13:24:07;5.30;;;4.40;;
13704;SDS011;6924;52.122;9.952;2022-11-20T13:26:48;5.97;;;5.37;;
13704;SDS011;6924;52.122;9.952;2022-11-20T13:29:25;6.17;;;5.07;;
13704;SDS011;6924;52.122;9.952;2022-11-20T13:32:00;5.30;;;4.80;;
13704;SDS011;6924;52.122;9.952;2022-11-20T13:34:29;5.40;;;4.83;;
13704;SDS011;6924;52.122;9.952;2022-11-20T13:36:58;9.40;;;5.77;;
13704;SDS011;6924;52.122;9.952;2022-11-20T13:39:30;4.93;;;3.53;;
13704;SDS011;6924;52.122;9.952;2022-11-20T13:41:58;4.07;;;3.70;;
13704;SDS011;6924;52.122;9.952;2022-11-20T13:44:27;6.50;;;3.50;;
13704;SDS011;6924;52.122;9.952;2022-11-20T13:46:59;3.83;;;2.97;;
13704;SDS011;6924;52.122;9.952;2022-11-20T13:49:26;3.40;;;3.07;;
13704;SDS011;6924;52.122;9.952;2022-11-20T13:51:58;4.30;;;3.37;;
13704;SDS011;6924;52.122;9.952;2022-11-20T13:57:32;4.57;;;3.67;;
13704;SDS011;6924;52.122;9.952;2022-11-20T14:00:12;4.40;;;3.67;;
13704;SDS011;6924;52.122;9.952;2022-11-20T14:02:38;5.60;;;4.30;;
13704;SDS011;6924;52.122;9.952;2022-11-20T14:05:06;4.97;;;4.20;;
13704;SDS011;6924;52.122;9.952;2022-11-20T14:07:45;4.30;;;3.90;;
13704;SDS011;6924;52.122;9.952;2022-11-20T14:10:21;3.87;;;3.47;;
13704;SDS011;6924;52.122;9.952;2022-11-20T14:12:49;4.40;;;3.57;;
13704;SDS011;6924;52.122;9.952;2022-11-20T14:15:23;5.07;;;3.80;;
13704;SDS011;6924;52.122;9.952;2022-11-20T14:17:51;3.63;;;3.00;;
13704;SDS011;6924;52.122;9.952;2022-11-20T14:20:17;5.50;;;4.43;;
13704;SDS011;6924;52.122;9.952;2022-11-20T14:22:48;4.23;;;2.93;;
13704;SDS011;6924;52.122;9.952;2022-11-20T14:25:20;3.50;;;2.87;;
13704;SDS011;6924;52.122;9.952;2022-11-20T14:27:52;4.23;;;3.27;;
13704;SDS011;6924;52.122;9.952;2022-11-20T14:30:20;4.13;;;3.67;;
13704;SDS011;6924;52.122;9.952;2022-11-20T14:32:49;4.63;;;3.73;;
13704;SDS011;6924;52.122;9.952;2022-11-20T14:35:18;4.10;;;3.50;;
13704;SDS011;6924;52.122;9.952;2022-11-20T14:37:49;4.37;;;3.57;;
13704;SDS011;6924;52.122;9.952;2022-11-20T14:40:25;3.90;;;3.10;;
13704;SDS011;6924;52.122;9.952;2022-11-20T14:42:54;3.87;;;3.33;;
13704;SDS011;6924;52.122;9.952;2022-11-20T14:45:21;5.13;;;4.23;;
13704;SDS011;6924;52.122;9.952;2022-11-20T14:47:48;5.70;;;4.67;;
13704;SDS011;6924;52.122;9.952;2022-11-20T14:50:19;5.73;;;4.83;;
13704;SDS011;6924;52.122;9.952;2022-11-20T14:52:52;5.17;;;4.43;;
13704;SDS011;6924;52.122;9.952;2022-11-20T14:55:28;7.83;;;4.80;;
13704;SDS011;6924;52.122;9.952;2022-11-20T14:57:57;8.50;;;5.23;;
13704;SDS011;6924;52.122;9.952;2022-11-20T15:00:27;6.00;;;5.13;;
13704;SDS011;6924;52.122;9.952;2022-11-20T15:02:54;7.80;;;5.90;;
13704;SDS011;6924;52.122;9.952;2022-11-20T15:05:22;6.47;;;5.73;;
13704;SDS011;6924;52.122;9.952;2022-11-20T15:07:50;7.13;;;5.40;;
13704;SDS011;6924;52.122;9.952;2022-11-20T15:10:22;6.73;;;5.87;;
13704;SDS011;6924;52.122;9.952;2022-11-20T15:12:51;7.50;;;6.33;;
13704;SDS011;6924;52.122;9.952;2022-11-20T15:15:20;7.37;;;6.47;;
13704;SDS011;6924;52.122;9.952;2022-11-20T15:17:50;8.33;;;6.53;;
13704;SDS011;6924;52.122;9.952;2022-11-20T15:20:17;6.50;;;5.90;;
13704;SDS011;6924;52.122;9.952;2022-11-20T15:22:44;7.73;;;6.83;;
13704;SDS011;6924;52.122;9.952;2022-11-20T15:25:11;7.40;;;5.97;;
13704;SDS011;6924;52.122;9.952;2022-11-20T15:27:39;9.47;;;6.23;;
13704;SDS011;6924;52.122;9.952;2022-11-20T15:30:11;6.60;;;5.90;;